Airfield :
LOGIN :

Register | Disclaimer

   EN    FR    IT 

 










Legend :    VFR   Marginal VFR   IFR   Intensive IFR   Very Intensive IFR
Visi :
Ceiling :
>= 8 km
>= 3000ft
5 to 8 km
1000 to 3000 ft
1500m to 5 km
500 to 1000 ft
800 to 1500m
200 to 500 ft
< 800m
< 200 ft
Symbols :   Thunderstorms  Fog  Heavy snow  Heavy precipitations  Wind > 20 kt
SIGMETs :     Misc.  Thunderstorms  Icing  Turbulence  Mountain Waves  Volcanic Ashes






- Airport Elevation : 659 ft
- IATA code : LGG


EBLG - Liège

CURRENT METAR :
  • 091550Z 33019G30KT 290V350 6000 -SHRA FEW006 BKN007 BKN010 06/04 Q1007 TEMPO 23025G38KT 3000 SHRA

EXPIRED METARs :
  • 091520Z 31016KT 9999 -SHRA FEW006 BKN007 BKN010 06/05 Q1005 TEMPO 23025G38KT 3000 SHRA
  • 091450Z 28021G35KT 3200 SHRA FEW008 BKN009 BKN010 06/05 Q1003 TEMPO 23025G38KT 3000 SHRA
  • 091420Z 27018KT 3200 SHRA FEW008 BKN009 BKN010 06/04 Q1002 TEMPO 23020G30KT 3000 SHRA
  • 091350Z 27016KT 6000 -SHRA FEW009 SCT014 BKN018 06/05 Q1002 TEMPO 23020G30KT 3000 SHRA
  • 091320Z 27013KT 8000 FEW010 SCT015 BKN021 06/05 Q1002 TEMPO 23020G30KT 3000 SHRA

TAF TAF EBLG
Valid from the 09 at 12:00 until the 10 at 18:00 UTC


091100Z 0912/1018 27006KT 9999 SCT020 SCT030
TEMPO 0912/0918 33025G38KT 3000 SHRAGS SCT005 BKN009CB
PROB30
TEMPO 1000/1007 BKN008
BECMG 1010/1012 19010KT
BECMG 1016/1018 18015G25KT



MET'MAP, your aeronautical weather chart ! - Copyright ORBIFLY December 2007 - Disclaimer

ORBIFLY MET'MAP TEAM :

Programming & Development : Alexandra Zaïnal
Concept & original design : Baudouin d'Aumeries
Assistance for programming : Marc-Olivier Méhu
Technical & hardware support : Manuel Goepfert

Contact : metmap@orbifly.com




SOURCES & CREDITS :

   NOAA